sensor_id;sensor_type;location;lat;lon;timestamp;P1;durP1;ratioP1;P2;durP2;ratioP2
54189;SDS011;40340;53.208;6.582;2022-07-25T00:02:14;2.87;;;2.00;;
54189;SDS011;40340;53.208;6.582;2022-07-25T00:04:40;3.60;;;2.27;;
54189;SDS011;40340;53.208;6.582;2022-07-25T00:07:06;3.22;;;2.10;;
54189;SDS011;40340;53.208;6.582;2022-07-25T00:09:32;4.85;;;2.47;;
54189;SDS011;40340;53.208;6.582;2022-07-25T00:11:58;3.97;;;2.47;;
54189;SDS011;40340;53.208;6.582;2022-07-25T00:14:24;4.07;;;2.23;;
54189;SDS011;40340;53.208;6.582;2022-07-25T00:16:50;4.13;;;2.65;;
54189;SDS011;40340;53.208;6.582;2022-07-25T00:19:15;3.13;;;2.50;;
54189;SDS011;40340;53.208;6.582;2022-07-25T00:21:41;3.17;;;2.08;;
54189;SDS011;40340;53.208;6.582;2022-07-25T00:24:06;2.90;;;2.23;;
54189;SDS011;40340;53.208;6.582;2022-07-25T00:26:32;3.27;;;2.30;;
54189;SDS011;40340;53.208;6.582;2022-07-25T00:28:58;7.37;;;2.07;;
54189;SDS011;40340;53.208;6.582;2022-07-25T00:31:23;2.67;;;2.20;;
54189;SDS011;40340;53.208;6.582;2022-07-25T00:33:49;4.40;;;2.27;;
54189;SDS011;40340;53.208;6.582;2022-07-25T00:36:14;2.90;;;2.20;;
54189;SDS011;40340;53.208;6.582;2022-07-25T00:38:40;5.27;;;2.53;;
54189;SDS011;40340;53.208;6.582;2022-07-25T00:41:06;3.70;;;2.40;;
54189;SDS011;40340;53.208;6.582;2022-07-25T00:43:31;4.27;;;2.53;;
54189;SDS011;40340;53.208;6.582;2022-07-25T00:45:57;3.47;;;2.40;;
54189;SDS011;40340;53.208;6.582;2022-07-25T00:48:23;3.55;;;2.60;;
54189;SDS011;40340;53.208;6.582;2022-07-25T00:50:49;3.38;;;2.35;;
54189;SDS011;40340;53.208;6.582;2022-07-25T00:53:15;3.83;;;2.70;;
54189;SDS011;40340;53.208;6.582;2022-07-25T00:55:41;7.90;;;2.80;;
54189;SDS011;40340;53.208;6.582;2022-07-25T00:58:06;3.95;;;2.75;;
54189;SDS011;40340;53.208;6.582;2022-07-25T01:00:32;6.30;;;3.10;;
54189;SDS011;40340;53.208;6.582;2022-07-25T01:02:58;5.27;;;3.30;;
54189;SDS011;40340;53.208;6.582;2022-07-25T01:05:23;4.00;;;2.87;;
54189;SDS011;40340;53.208;6.582;2022-07-25T01:07:49;3.83;;;2.90;;
54189;SDS011;40340;53.208;6.582;2022-07-25T01:12:47;4.85;;;3.10;;
54189;SDS011;40340;53.208;6.582;2022-07-25T01:15:15;4.55;;;3.10;;
54189;SDS011;40340;53.208;6.582;2022-07-25T01:17:45;4.45;;;3.17;;
54189;SDS011;40340;53.208;6.582;2022-07-25T01:20:17;5.95;;;3.38;;
54189;SDS011;40340;53.208;6.582;2022-07-25T01:22:45;5.32;;;3.10;;
54189;SDS011;40340;53.208;6.582;2022-07-25T01:25:11;6.13;;;3.42;;
54189;SDS011;40340;53.208;6.582;2022-07-25T01:27:38;6.50;;;3.40;;
54189;SDS011;40340;53.208;6.582;2022-07-25T01:30:05;4.80;;;3.45;;
54189;SDS011;40340;53.208;6.582;2022-07-25T01:32:32;5.68;;;3.85;;
54189;SDS011;40340;53.208;6.582;2022-07-25T01:34:58;5.85;;;3.90;;
54189;SDS011;40340;53.208;6.582;2022-07-25T01:37:24;7.80;;;3.83;;
54189;SDS011;40340;53.208;6.582;2022-07-25T01:39:49;4.90;;;3.67;;
54189;SDS011;40340;53.208;6.582;2022-07-25T01:42:15;4.70;;;3.83;;
54189;SDS011;40340;53.208;6.582;2022-07-25T01:44:41;5.50;;;3.83;;
54189;SDS011;40340;53.208;6.582;2022-07-25T01:47:06;4.50;;;3.90;;
54189;SDS011;40340;53.208;6.582;2022-07-25T01:49:32;7.23;;;3.90;;
54189;SDS011;40340;53.208;6.582;2022-07-25T01:51:57;5.53;;;4.30;;
54189;SDS011;40340;53.208;6.582;2022-07-25T01:56:49;6.13;;;4.65;;
54189;SDS011;40340;53.208;6.582;2022-07-25T01:59:15;4.53;;;4.10;;
54189;SDS011;40340;53.208;6.582;2022-07-25T02:01:41;7.80;;;4.63;;
54189;SDS011;40340;53.208;6.582;2022-07-25T02:04:07;6.50;;;4.30;;
54189;SDS011;40340;53.208;6.582;2022-07-25T02:06:32;4.87;;;4.13;;
54189;SDS011;40340;53.208;6.582;2022-07-25T02:08:59;5.85;;;4.80;;
54189;SDS011;40340;53.208;6.582;2022-07-25T02:11:25;6.10;;;4.70;;
54189;SDS011;40340;53.208;6.582;2022-07-25T02:13:50;7.63;;;4.93;;
54189;SDS011;40340;53.208;6.582;2022-07-25T02:16:16;6.87;;;4.60;;
54189;SDS011;40340;53.208;6.582;2022-07-25T02:18:42;6.60;;;5.03;;
54189;SDS011;40340;53.208;6.582;2022-07-25T02:21:07;11.10;;;5.40;;
54189;SDS011;40340;53.208;6.582;2022-07-25T02:26:00;7.00;;;5.63;;
54189;SDS011;40340;53.208;6.582;2022-07-25T02:28:26;8.77;;;5.73;;
54189;SDS011;40340;53.208;6.582;2022-07-25T02:30:51;8.83;;;5.97;;
54189;SDS011;40340;53.208;6.582;2022-07-25T02:33:17;8.57;;;5.23;;
54189;SDS011;40340;53.208;6.582;2022-07-25T02:35:42;7.23;;;4.70;;
54189;SDS011;40340;53.208;6.582;2022-07-25T02:38:08;7.03;;;5.70;;
54189;SDS011;40340;53.208;6.582;2022-07-25T02:40:34;10.70;;;5.93;;
54189;SDS011;40340;53.208;6.582;2022-07-25T02:42:59;7.57;;;5.53;;
54189;SDS011;40340;53.208;6.582;2022-07-25T02:45:25;6.83;;;5.70;;
54189;SDS011;40340;53.208;6.582;2022-07-25T02:47:50;6.93;;;5.13;;
54189;SDS011;40340;53.208;6.582;2022-07-25T02:50:16;10.98;;;6.00;;
54189;SDS011;40340;53.208;6.582;2022-07-25T02:52:42;6.30;;;5.33;;
54189;SDS011;40340;53.208;6.582;2022-07-25T02:55:08;6.82;;;5.18;;
54189;SDS011;40340;53.208;6.582;2022-07-25T02:57:34;7.07;;;5.50;;
54189;SDS011;40340;53.208;6.582;2022-07-25T03:00:00;7.43;;;5.47;;
54189;SDS011;40340;53.208;6.582;2022-07-25T03:02:25;7.25;;;5.22;;
54189;SDS011;40340;53.208;6.582;2022-07-25T03:04:51;8.50;;;5.83;;
54189;SDS011;40340;53.208;6.582;2022-07-25T03:07:17;6.97;;;5.00;;
54189;SDS011;40340;53.208;6.582;2022-07-25T03:09:42;8.27;;;5.63;;
54189;SDS011;40340;53.208;6.582;2022-07-25T03:12:08;6.53;;;5.00;;
54189;SDS011;40340;53.208;6.582;2022-07-25T03:14:33;9.00;;;6.17;;
54189;SDS011;40340;53.208;6.582;2022-07-25T03:16:59;8.83;;;5.40;;
54189;SDS011;40340;53.208;6.582;2022-07-25T03:19:25;6.75;;;5.75;;
54189;SDS011;40340;53.208;6.582;2022-07-25T03:21:51;8.80;;;5.27;;
54189;SDS011;40340;53.208;6.582;2022-07-25T03:24:16;7.73;;;5.73;;
54189;SDS011;40340;53.208;6.582;2022-07-25T03:26:43;8.02;;;5.80;;
54189;SDS011;40340;53.208;6.582;2022-07-25T03:29:08;9.02;;;6.07;;
54189;SDS011;40340;53.208;6.582;2022-07-25T03:31:34;10.80;;;6.03;;
54189;SDS011;40340;53.208;6.582;2022-07-25T03:34:00;8.07;;;6.23;;
54189;SDS011;40340;53.208;6.582;2022-07-25T03:36:25;9.53;;;6.40;;
54189;SDS011;40340;53.208;6.582;2022-07-25T03:38:51;8.27;;;5.53;;
54189;SDS011;40340;53.208;6.582;2022-07-25T03:41:16;7.07;;;5.00;;
54189;SDS011;40340;53.208;6.582;2022-07-25T03:43:42;9.47;;;6.00;;
54189;SDS011;40340;53.208;6.582;2022-07-25T03:46:08;6.07;;;5.03;;
54189;SDS011;40340;53.208;6.582;2022-07-25T03:48:33;5.97;;;5.27;;
54189;SDS011;40340;53.208;6.582;2022-07-25T03:50:59;7.40;;;5.33;;
54189;SDS011;40340;53.208;6.582;2022-07-25T03:53:25;7.73;;;5.93;;
54189;SDS011;40340;53.208;6.582;2022-07-25T03:55:50;8.13;;;5.93;;
54189;SDS011;40340;53.208;6.582;2022-07-25T03:58:16;8.87;;;6.63;;
54189;SDS011;40340;53.208;6.582;2022-07-25T04:00:41;6.97;;;5.67;;
54189;SDS011;40340;53.208;6.582;2022-07-25T04:03:07;9.03;;;6.30;;
54189;SDS011;40340;53.208;6.582;2022-07-25T04:05:33;7.40;;;6.13;;
54189;SDS011;40340;53.208;6.582;2022-07-25T04:07:58;8.97;;;7.30;;
54189;SDS011;40340;53.208;6.582;2022-07-25T04:10:24;9.00;;;6.65;;
54189;SDS011;40340;53.208;6.582;2022-07-25T04:12:50;8.53;;;6.63;;
54189;SDS011;40340;53.208;6.582;2022-07-25T04:15:16;8.97;;;6.40;;
54189;SDS011;40340;53.208;6.582;2022-07-25T04:17:41;9.10;;;6.33;;
54189;SDS011;40340;53.208;6.582;2022-07-25T04:20:07;8.00;;;5.93;;
54189;SDS011;40340;53.208;6.582;2022-07-25T04:22:33;10.93;;;6.90;;
54189;SDS011;40340;53.208;6.582;2022-07-25T04:24:59;9.75;;;6.60;;
54189;SDS011;40340;53.208;6.582;2022-07-25T04:27:25;10.80;;;6.57;;
54189;SDS011;40340;53.208;6.582;2022-07-25T04:29:51;9.97;;;7.10;;
54189;SDS011;40340;53.208;6.582;2022-07-25T04:32:16;10.03;;;6.50;;
54189;SDS011;40340;53.208;6.582;2022-07-25T04:37:08;9.57;;;6.40;;
54189;SDS011;40340;53.208;6.582;2022-07-25T04:39:34;9.50;;;7.13;;
54189;SDS011;40340;53.208;6.582;2022-07-25T04:42:00;9.13;;;6.10;;
54189;SDS011;40340;53.208;6.582;2022-07-25T04:44:25;10.87;;;7.23;;
54189;SDS011;40340;53.208;6.582;2022-07-25T04:46:51;9.37;;;7.50;;
54189;SDS011;40340;53.208;6.582;2022-07-25T04:49:16;9.07;;;6.47;;
54189;SDS011;40340;53.208;6.582;2022-07-25T04:51:42;8.70;;;6.97;;
54189;SDS011;40340;53.208;6.582;2022-07-25T04:54:08;11.23;;;7.03;;
54189;SDS011;40340;53.208;6.582;2022-07-25T04:56:34;12.53;;;7.20;;
54189;SDS011;40340;53.208;6.582;2022-07-25T05:01:25;10.38;;;7.10;;
54189;SDS011;40340;53.208;6.582;2022-07-25T05:03:51;10.37;;;7.43;;
54189;SDS011;40340;53.208;6.582;2022-07-25T05:06:17;8.47;;;6.87;;
54189;SDS011;40340;53.208;6.582;2022-07-25T05:11:08;10.10;;;6.70;;
54189;SDS011;40340;53.208;6.582;2022-07-25T05:13:34;9.73;;;7.40;;
54189;SDS011;40340;53.208;6.582;2022-07-25T05:16:00;9.63;;;7.30;;
54189;SDS011;40340;53.208;6.582;2022-07-25T05:18:27;9.57;;;7.47;;
54189;SDS011;40340;53.208;6.582;2022-07-25T05:20:52;8.60;;;7.30;;
54189;SDS011;40340;53.208;6.582;2022-07-25T05:23:18;9.87;;;8.00;;
54189;SDS011;40340;53.208;6.582;2022-07-25T05:25:43;9.53;;;7.37;;
54189;SDS011;40340;53.208;6.582;2022-07-25T05:28:09;10.43;;;8.20;;
54189;SDS011;40340;53.208;6.582;2022-07-25T05:30:35;9.87;;;8.03;;
54189;SDS011;40340;53.208;6.582;2022-07-25T05:33:00;14.37;;;8.80;;
54189;SDS011;40340;53.208;6.582;2022-07-25T05:35:26;12.17;;;8.93;;
54189;SDS011;40340;53.208;6.582;2022-07-25T05:37:52;10.23;;;8.50;;
54189;SDS011;40340;53.208;6.582;2022-07-25T05:40:17;15.67;;;9.80;;
54189;SDS011;40340;53.208;6.582;2022-07-25T05:42:43;11.23;;;9.13;;
54189;SDS011;40340;53.208;6.582;2022-07-25T05:45:09;13.05;;;9.63;;
54189;SDS011;40340;53.208;6.582;2022-07-25T05:47:35;12.27;;;9.95;;
54189;SDS011;40340;53.208;6.582;2022-07-25T05:50:01;12.47;;;9.97;;
54189;SDS011;40340;53.208;6.582;2022-07-25T05:52:26;13.70;;;10.37;;
54189;SDS011;40340;53.208;6.582;2022-07-25T05:54:52;13.90;;;10.43;;
54189;SDS011;40340;53.208;6.582;2022-07-25T05:57:18;16.47;;;10.10;;
54189;SDS011;40340;53.208;6.582;2022-07-25T05:59:43;21.17;;;9.83;;
54189;SDS011;40340;53.208;6.582;2022-07-25T06:02:09;16.57;;;11.30;;
54189;SDS011;40340;53.208;6.582;2022-07-25T06:04:34;15.87;;;10.93;;
54189;SDS011;40340;53.208;6.582;2022-07-25T06:07:00;17.53;;;9.50;;
54189;SDS011;40340;53.208;6.582;2022-07-25T06:09:26;18.43;;;12.20;;
54189;SDS011;40340;53.208;6.582;2022-07-25T06:11:51;16.67;;;10.87;;
54189;SDS011;40340;53.208;6.582;2022-07-25T06:14:17;15.43;;;10.93;;
54189;SDS011;40340;53.208;6.582;2022-07-25T06:16:43;13.53;;;10.73;;
54189;SDS011;40340;53.208;6.582;2022-07-25T06:19:08;16.13;;;11.57;;
54189;SDS011;40340;53.208;6.582;2022-07-25T06:21:34;13.13;;;10.67;;
54189;SDS011;40340;53.208;6.582;2022-07-25T06:24:00;14.50;;;10.70;;
54189;SDS011;40340;53.208;6.582;2022-07-25T06:26:26;12.77;;;10.27;;
54189;SDS011;40340;53.208;6.582;2022-07-25T06:28:52;15.63;;;11.87;;
54189;SDS011;40340;53.208;6.582;2022-07-25T06:31:17;11.73;;;9.53;;
54189;SDS011;40340;53.208;6.582;2022-07-25T06:33:43;15.30;;;11.17;;
54189;SDS011;40340;53.208;6.582;2022-07-25T06:36:09;14.47;;;10.50;;
54189;SDS011;40340;53.208;6.582;2022-07-25T06:38:35;13.53;;;11.30;;
54189;SDS011;40340;53.208;6.582;2022-07-25T06:41:01;14.90;;;11.55;;
54189;SDS011;40340;53.208;6.582;2022-07-25T06:43:26;12.40;;;10.27;;
54189;SDS011;40340;53.208;6.582;2022-07-25T06:45:52;13.37;;;9.37;;
54189;SDS011;40340;53.208;6.582;2022-07-25T06:48:17;13.63;;;10.63;;
54189;SDS011;40340;53.208;6.582;2022-07-25T06:50:43;13.80;;;10.17;;
54189;SDS011;40340;53.208;6.582;2022-07-25T06:53:09;12.53;;;9.53;;
54189;SDS011;40340;53.208;6.582;2022-07-25T06:55:35;15.53;;;10.80;;
54189;SDS011;40340;53.208;6.582;2022-07-25T06:58:01;15.57;;;10.87;;
54189;SDS011;40340;53.208;6.582;2022-07-25T07:00:26;11.90;;;9.80;;
54189;SDS011;40340;53.208;6.582;2022-07-25T07:05:21;13.00;;;8.82;;
54189;SDS011;40340;53.208;6.582;2022-07-25T07:07:47;14.63;;;10.35;;
54189;SDS011;40340;53.208;6.582;2022-07-25T07:10:13;10.60;;;8.80;;
54189;SDS011;40340;53.208;6.582;2022-07-25T07:12:38;13.63;;;9.50;;
54189;SDS011;40340;53.208;6.582;2022-07-25T07:15:04;11.13;;;8.97;;
54189;SDS011;40340;53.208;6.582;2022-07-25T07:17:30;16.95;;;9.93;;
54189;SDS011;40340;53.208;6.582;2022-07-25T07:19:56;15.07;;;9.30;;
54189;SDS011;40340;53.208;6.582;2022-07-25T07:22:21;13.83;;;8.60;;
54189;SDS011;40340;53.208;6.582;2022-07-25T07:24:47;14.70;;;9.40;;
54189;SDS011;40340;53.208;6.582;2022-07-25T07:27:12;19.13;;;10.27;;
54189;SDS011;40340;53.208;6.582;2022-07-25T07:29:38;12.27;;;9.03;;
54189;SDS011;40340;53.208;6.582;2022-07-25T07:32:04;16.10;;;9.97;;
54189;SDS011;40340;53.208;6.582;2022-07-25T07:34:30;13.43;;;8.60;;
54189;SDS011;40340;53.208;6.582;2022-07-25T07:36:56;13.57;;;10.23;;
54189;SDS011;40340;53.208;6.582;2022-07-25T07:39:22;14.77;;;9.67;;
54189;SDS011;40340;53.208;6.582;2022-07-25T07:41:47;13.37;;;8.73;;
54189;SDS011;40340;53.208;6.582;2022-07-25T07:44:13;14.07;;;9.77;;
54189;SDS011;40340;53.208;6.582;2022-07-25T07:46:38;12.70;;;8.60;;
54189;SDS011;40340;53.208;6.582;2022-07-25T07:49:04;12.60;;;8.60;;
54189;SDS011;40340;53.208;6.582;2022-07-25T07:51:29;18.30;;;8.67;;
54189;SDS011;40340;53.208;6.582;2022-07-25T07:53:55;10.57;;;7.63;;
54189;SDS011;40340;53.208;6.582;2022-07-25T07:56:39;11.23;;;8.10;;
54189;SDS011;40340;53.208;6.582;2022-07-25T07:59:06;12.23;;;7.93;;
54189;SDS011;40340;53.208;6.582;2022-07-25T08:01:31;11.13;;;7.00;;
54189;SDS011;40340;53.208;6.582;2022-07-25T08:03:58;13.43;;;7.93;;
54189;SDS011;40340;53.208;6.582;2022-07-25T08:06:23;13.63;;;6.83;;
54189;SDS011;40340;53.208;6.582;2022-07-25T08:08:49;12.87;;;7.57;;
54189;SDS011;40340;53.208;6.582;2022-07-25T08:11:14;13.90;;;7.30;;
54189;SDS011;40340;53.208;6.582;2022-07-25T08:13:40;12.87;;;7.77;;
54189;SDS011;40340;53.208;6.582;2022-07-25T08:16:06;13.10;;;7.70;;
54189;SDS011;40340;53.208;6.582;2022-07-25T08:18:32;8.77;;;6.68;;
54189;SDS011;40340;53.208;6.582;2022-07-25T08:20:58;10.45;;;6.65;;
54189;SDS011;40340;53.208;6.582;2022-07-25T08:23:30;13.10;;;7.22;;
54189;SDS011;40340;53.208;6.582;2022-07-25T08:25:57;10.27;;;6.90;;
54189;SDS011;40340;53.208;6.582;2022-07-25T08:28:23;16.10;;;7.32;;
54189;SDS011;40340;53.208;6.582;2022-07-25T08:30:49;13.00;;;6.83;;
54189;SDS011;40340;53.208;6.582;2022-07-25T08:33:15;9.55;;;6.20;;
54189;SDS011;40340;53.208;6.582;2022-07-25T08:35:44;11.93;;;6.43;;
54189;SDS011;40340;53.208;6.582;2022-07-25T08:38:15;13.05;;;7.47;;
54189;SDS011;40340;53.208;6.582;2022-07-25T08:40:42;11.85;;;6.22;;
54189;SDS011;40340;53.208;6.582;2022-07-25T08:43:11;14.50;;;6.80;;
54189;SDS011;40340;53.208;6.582;2022-07-25T08:45:45;11.40;;;6.93;;
54189;SDS011;40340;53.208;6.582;2022-07-25T08:48:12;13.23;;;6.25;;
54189;SDS011;40340;53.208;6.582;2022-07-25T08:50:40;9.10;;;6.38;;
54189;SDS011;40340;53.208;6.582;2022-07-25T08:53:06;8.73;;;5.88;;
54189;SDS011;40340;53.208;6.582;2022-07-25T08:55:32;9.10;;;6.38;;
54189;SDS011;40340;53.208;6.582;2022-07-25T08:57:58;8.37;;;6.00;;
54189;SDS011;40340;53.208;6.582;2022-07-25T09:00:24;8.87;;;6.17;;
54189;SDS011;40340;53.208;6.582;2022-07-25T09:02:56;14.45;;;6.68;;
54189;SDS011;40340;53.208;6.582;2022-07-25T09:05:29;12.10;;;5.32;;
54189;SDS011;40340;53.208;6.582;2022-07-25T09:07:56;7.38;;;4.20;;
54189;SDS011;40340;53.208;6.582;2022-07-25T09:10:29;8.23;;;4.32;;
54189;SDS011;40340;53.208;6.582;2022-07-25T09:12:59;9.60;;;4.20;;
54189;SDS011;40340;53.208;6.582;2022-07-25T09:15:33;6.45;;;4.00;;
54189;SDS011;40340;53.208;6.582;2022-07-25T09:18:01;6.70;;;4.20;;
54189;SDS011;40340;53.208;6.582;2022-07-25T09:21:11;12.68;;;3.80;;
54189;SDS011;40340;53.208;6.582;2022-07-25T09:28:31;6.75;;;2.95;;
54189;SDS011;40340;53.208;6.582;2022-07-25T09:31:03;7.03;;;3.25;;
54189;SDS011;40340;53.208;6.582;2022-07-25T09:33:30;5.70;;;2.70;;
54189;SDS011;40340;53.208;6.582;2022-07-25T09:35:56;7.80;;;2.88;;
54189;SDS011;40340;53.208;6.582;2022-07-25T09:38:22;8.68;;;2.80;;
54189;SDS011;40340;53.208;6.582;2022-07-25T09:40:52;6.65;;;2.53;;
54189;SDS011;40340;53.208;6.582;2022-07-25T09:43:22;5.53;;;2.67;;
54189;SDS011;40340;53.208;6.582;2022-07-25T09:45:59;12.18;;;2.47;;
54189;SDS011;40340;53.208;6.582;2022-07-25T09:48:25;6.70;;;2.40;;
54189;SDS011;40340;53.208;6.582;2022-07-25T09:50:51;8.73;;;1.97;;
54189;SDS011;40340;53.208;6.582;2022-07-25T09:53:18;5.22;;;1.92;;
54189;SDS011;40340;53.208;6.582;2022-07-25T09:55:44;7.95;;;2.25;;
54189;SDS011;40340;53.208;6.582;2022-07-25T09:58:11;11.77;;;2.10;;
54189;SDS011;40340;53.208;6.582;2022-07-25T10:00:38;9.45;;;1.90;;
54189;SDS011;40340;53.208;6.582;2022-07-25T10:03:26;4.75;;;1.60;;
54189;SDS011;40340;53.208;6.582;2022-07-25T10:06:20;3.35;;;1.60;;
54189;SDS011;40340;53.208;6.582;2022-07-25T10:08:51;4.07;;;1.73;;
54189;SDS011;40340;53.208;6.582;2022-07-25T10:11:21;9.05;;;1.90;;
54189;SDS011;40340;53.208;6.582;2022-07-25T10:13:52;7.50;;;1.65;;
54189;SDS011;40340;53.208;6.582;2022-07-25T10:16:25;5.85;;;1.70;;
54189;SDS011;40340;53.208;6.582;2022-07-25T10:18:52;4.97;;;1.80;;
54189;SDS011;40340;53.208;6.582;2022-07-25T10:21:22;9.32;;;2.50;;
54189;SDS011;40340;53.208;6.582;2022-07-25T10:24:05;12.98;;;2.10;;
54189;SDS011;40340;53.208;6.582;2022-07-25T10:26:35;9.85;;;1.83;;
54189;SDS011;40340;53.208;6.582;2022-07-25T10:29:07;4.68;;;1.55;;
54189;SDS011;40340;53.208;6.582;2022-07-25T10:31:35;4.10;;;1.55;;
54189;SDS011;40340;53.208;6.582;2022-07-25T10:34:07;6.53;;;2.13;;
54189;SDS011;40340;53.208;6.582;2022-07-25T10:36:45;4.00;;;1.80;;
54189;SDS011;40340;53.208;6.582;2022-07-25T10:39:16;6.65;;;1.98;;
54189;SDS011;40340;53.208;6.582;2022-07-25T10:41:49;7.80;;;1.95;;
54189;SDS011;40340;53.208;6.582;2022-07-25T10:44:20;10.25;;;1.95;;
54189;SDS011;40340;53.208;6.582;2022-07-25T10:46:46;5.28;;;2.03;;
54189;SDS011;40340;53.208;6.582;2022-07-25T10:49:22;3.75;;;1.80;;
54189;SDS011;40340;53.208;6.582;2022-07-25T10:51:58;3.63;;;2.10;;
54189;SDS011;40340;53.208;6.582;2022-07-25T10:54:25;5.68;;;2.20;;
54189;SDS011;40340;53.208;6.582;2022-07-25T10:56:57;6.18;;;2.42;;
54189;SDS011;40340;53.208;6.582;2022-07-25T10:59:27;3.85;;;2.22;;
54189;SDS011;40340;53.208;6.582;2022-07-25T11:02:11;5.80;;;2.40;;
54189;SDS011;40340;53.208;6.582;2022-07-25T11:04:40;5.18;;;2.35;;
54189;SDS011;40340;53.208;6.582;2022-07-25T11:07:14;5.97;;;2.92;;
54189;SDS011;40340;53.208;6.582;2022-07-25T11:09:42;6.13;;;2.38;;
54189;SDS011;40340;53.208;6.582;2022-07-25T11:12:08;6.13;;;2.72;;
54189;SDS011;40340;53.208;6.582;2022-07-25T11:14:38;5.93;;;2.55;;
54189;SDS011;40340;53.208;6.582;2022-07-25T11:17:20;10.38;;;2.33;;
54189;SDS011;40340;53.208;6.582;2022-07-25T11:22:19;5.90;;;2.47;;
54189;SDS011;40340;53.208;6.582;2022-07-25T11:24:45;8.93;;;2.20;;
54189;SDS011;40340;53.208;6.582;2022-07-25T11:27:12;9.48;;;2.13;;
54189;SDS011;40340;53.208;6.582;2022-07-25T11:29:52;13.93;;;2.60;;
54189;SDS011;40340;53.208;6.582;2022-07-25T11:32:36;8.43;;;2.80;;
54189;SDS011;40340;53.208;6.582;2022-07-25T11:35:06;8.43;;;1.95;;
54189;SDS011;40340;53.208;6.582;2022-07-25T11:37:34;11.82;;;2.88;;
54189;SDS011;40340;53.208;6.582;2022-07-25T11:40:01;13.05;;;2.75;;
54189;SDS011;40340;53.208;6.582;2022-07-25T11:42:37;8.00;;;2.08;;
54189;SDS011;40340;53.208;6.582;2022-07-25T11:45:21;11.20;;;2.72;;
54189;SDS011;40340;53.208;6.582;2022-07-25T11:48:07;7.30;;;2.22;;
54189;SDS011;40340;53.208;6.582;2022-07-25T11:50:35;12.13;;;2.30;;
54189;SDS011;40340;53.208;6.582;2022-07-25T11:53:04;7.70;;;2.10;;
54189;SDS011;40340;53.208;6.582;2022-07-25T11:55:31;7.38;;;1.98;;
54189;SDS011;40340;53.208;6.582;2022-07-25T11:58:01;10.20;;;2.85;;
54189;SDS011;40340;53.208;6.582;2022-07-25T12:00:28;11.68;;;3.13;;
54189;SDS011;40340;53.208;6.582;2022-07-25T12:03:04;11.43;;;2.88;;
54189;SDS011;40340;53.208;6.582;2022-07-25T12:05:31;16.45;;;3.20;;
54189;SDS011;40340;53.208;6.582;2022-07-25T12:08:06;10.77;;;2.55;;
54189;SDS011;40340;53.208;6.582;2022-07-25T12:10:58;14.05;;;2.65;;
54189;SDS011;40340;53.208;6.582;2022-07-25T12:13:28;12.98;;;2.40;;
54189;SDS011;40340;53.208;6.582;2022-07-25T12:15:55;8.50;;;2.30;;
54189;SDS011;40340;53.208;6.582;2022-07-25T12:18:24;7.88;;;2.17;;
54189;SDS011;40340;53.208;6.582;2022-07-25T12:20:50;11.63;;;2.05;;
54189;SDS011;40340;53.208;6.582;2022-07-25T12:23:17;11.80;;;2.28;;
54189;SDS011;40340;53.208;6.582;2022-07-25T12:25:43;5.47;;;2.25;;
54189;SDS011;40340;53.208;6.582;2022-07-25T12:28:10;11.27;;;1.92;;
54189;SDS011;40340;53.208;6.582;2022-07-25T12:30:36;13.40;;;2.20;;
54189;SDS011;40340;53.208;6.582;2022-07-25T12:33:03;11.98;;;2.33;;
54189;SDS011;40340;53.208;6.582;2022-07-25T12:35:29;4.68;;;1.98;;
54189;SDS011;40340;53.208;6.582;2022-07-25T12:37:55;11.63;;;1.70;;
54189;SDS011;40340;53.208;6.582;2022-07-25T12:40:21;6.80;;;2.00;;
54189;SDS011;40340;53.208;6.582;2022-07-25T12:42:47;7.38;;;1.60;;
54189;SDS011;40340;53.208;6.582;2022-07-25T12:45:13;12.57;;;2.58;;
54189;SDS011;40340;53.208;6.582;2022-07-25T12:47:41;10.98;;;1.70;;
54189;SDS011;40340;53.208;6.582;2022-07-25T12:50:08;11.57;;;1.75;;
54189;SDS011;40340;53.208;6.582;2022-07-25T12:52:33;16.92;;;2.13;;
54189;SDS011;40340;53.208;6.582;2022-07-25T12:54:59;18.90;;;2.08;;
54189;SDS011;40340;53.208;6.582;2022-07-25T12:57:26;17.38;;;2.30;;
54189;SDS011;40340;53.208;6.582;2022-07-25T12:59:51;13.15;;;2.22;;
54189;SDS011;40340;53.208;6.582;2022-07-25T13:02:17;10.50;;;2.10;;
54189;SDS011;40340;53.208;6.582;2022-07-25T13:04:43;8.87;;;2.20;;
54189;SDS011;40340;53.208;6.582;2022-07-25T13:07:08;5.53;;;1.80;;
54189;SDS011;40340;53.208;6.582;2022-07-25T13:09:34;9.00;;;2.60;;
54189;SDS011;40340;53.208;6.582;2022-07-25T13:12:00;9.53;;;1.97;;
54189;SDS011;40340;53.208;6.582;2022-07-25T13:14:25;11.52;;;2.33;;
54189;SDS011;40340;53.208;6.582;2022-07-25T13:16:51;8.80;;;1.83;;
54189;SDS011;40340;53.208;6.582;2022-07-25T13:19:17;6.18;;;1.83;;
54189;SDS011;40340;53.208;6.582;2022-07-25T13:21:43;5.70;;;1.80;;
54189;SDS011;40340;53.208;6.582;2022-07-25T13:24:08;12.73;;;1.88;;
54189;SDS011;40340;53.208;6.582;2022-07-25T13:26:36;6.93;;;1.75;;
54189;SDS011;40340;53.208;6.582;2022-07-25T13:29:02;12.23;;;2.20;;
54189;SDS011;40340;53.208;6.582;2022-07-25T13:31:32;14.95;;;2.40;;
54189;SDS011;40340;53.208;6.582;2022-07-25T13:33:59;7.15;;;2.20;;
54189;SDS011;40340;53.208;6.582;2022-07-25T13:36:25;11.05;;;2.17;;
54189;SDS011;40340;53.208;6.582;2022-07-25T13:38:51;10.90;;;2.17;;
54189;SDS011;40340;53.208;6.582;2022-07-25T13:41:16;8.90;;;2.47;;
54189;SDS011;40340;53.208;6.582;2022-07-25T13:43:42;14.97;;;2.60;;
54189;SDS011;40340;53.208;6.582;2022-07-25T13:46:08;18.03;;;2.77;;
54189;SDS011;40340;53.208;6.582;2022-07-25T13:48:33;9.20;;;2.03;;
54189;SDS011;40340;53.208;6.582;2022-07-25T13:50:59;5.63;;;1.87;;
54189;SDS011;40340;53.208;6.582;2022-07-25T13:53:25;5.63;;;2.33;;
54189;SDS011;40340;53.208;6.582;2022-07-25T13:55:51;8.50;;;2.22;;
54189;SDS011;40340;53.208;6.582;2022-07-25T13:58:16;6.27;;;2.13;;
54189;SDS011;40340;53.208;6.582;2022-07-25T14:00:42;9.17;;;2.17;;
54189;SDS011;40340;53.208;6.582;2022-07-25T14:03:08;10.68;;;2.22;;
54189;SDS011;40340;53.208;6.582;2022-07-25T14:05:34;10.73;;;2.60;;
54189;SDS011;40340;53.208;6.582;2022-07-25T14:08:02;9.57;;;2.20;;
54189;SDS011;40340;53.208;6.582;2022-07-25T14:10:28;9.18;;;2.38;;
54189;SDS011;40340;53.208;6.582;2022-07-25T14:12:54;12.00;;;2.70;;
54189;SDS011;40340;53.208;6.582;2022-07-25T14:15:19;6.83;;;3.10;;
54189;SDS011;40340;53.208;6.582;2022-07-25T14:17:45;10.37;;;2.70;;
54189;SDS011;40340;53.208;6.582;2022-07-25T14:20:11;10.67;;;3.00;;
54189;SDS011;40340;53.208;6.582;2022-07-25T14:22:37;11.32;;;2.55;;
54189;SDS011;40340;53.208;6.582;2022-07-25T14:25:04;19.92;;;2.60;;
54189;SDS011;40340;53.208;6.582;2022-07-25T14:27:31;11.20;;;2.50;;
54189;SDS011;40340;53.208;6.582;2022-07-25T14:29:57;9.98;;;2.38;;
54189;SDS011;40340;53.208;6.582;2022-07-25T14:32:23;17.88;;;2.47;;
54189;SDS011;40340;53.208;6.582;2022-07-25T14:34:49;9.93;;;1.88;;
54189;SDS011;40340;53.208;6.582;2022-07-25T14:37:17;6.63;;;2.40;;
54189;SDS011;40340;53.208;6.582;2022-07-25T14:39:44;9.82;;;2.22;;
54189;SDS011;40340;53.208;6.582;2022-07-25T14:42:10;12.95;;;2.53;;
54189;SDS011;40340;53.208;6.582;2022-07-25T14:44:38;11.77;;;2.53;;
54189;SDS011;40340;53.208;6.582;2022-07-25T14:47:07;10.85;;;2.08;;
54189;SDS011;40340;53.208;6.582;2022-07-25T14:49:32;8.25;;;2.00;;
54189;SDS011;40340;53.208;6.582;2022-07-25T14:51:58;7.43;;;1.93;;
54189;SDS011;40340;53.208;6.582;2022-07-25T14:54:24;12.40;;;2.40;;
54189;SDS011;40340;53.208;6.582;2022-07-25T14:56:52;13.10;;;2.05;;
54189;SDS011;40340;53.208;6.582;2022-07-25T14:59:19;10.35;;;2.53;;
54189;SDS011;40340;53.208;6.582;2022-07-25T15:01:44;5.45;;;1.80;;
54189;SDS011;40340;53.208;6.582;2022-07-25T15:04:10;11.37;;;1.77;;
54189;SDS011;40340;53.208;6.582;2022-07-25T15:06:36;10.77;;;2.42;;